sensor_id;sensor_type;location;lat;lon;timestamp;pressure;altitude;pressure_sealevel;temperature;humidity
250;BME280;109;19.806;-70.704;2022-12-18T00:01:02;101499.53;;;23.74;63.76
250;BME280;109;19.806;-70.704;2022-12-18T00:03:35;101504.06;;;23.72;64.05
250;BME280;109;19.806;-70.704;2022-12-18T00:06:02;101504.00;;;23.73;63.99
250;BME280;109;19.806;-70.704;2022-12-18T00:08:28;101509.25;;;23.76;63.99
250;BME280;109;19.806;-70.704;2022-12-18T00:10:55;101506.63;;;23.75;63.75
250;BME280;109;19.806;-70.704;2022-12-18T00:13:21;101513.06;;;23.69;63.76
250;BME280;109;19.806;-70.704;2022-12-18T00:15:47;101519.47;;;23.65;63.44
250;BME280;109;19.806;-70.704;2022-12-18T00:18:14;101513.06;;;23.69;63.51
250;BME280;109;19.806;-70.704;2022-12-18T00:20:40;101511.31;;;23.68;63.24
250;BME280;109;19.806;-70.704;2022-12-18T00:23:07;101515.88;;;23.66;62.90
250;BME280;109;19.806;-70.704;2022-12-18T00:25:34;101509.75;;;23.62;62.97
250;BME280;109;19.806;-70.704;2022-12-18T00:28:02;101508.78;;;23.65;63.10
250;BME280;109;19.806;-70.704;2022-12-18T00:30:29;101511.09;;;23.74;63.03
250;BME280;109;19.806;-70.704;2022-12-18T00:32:56;101507.66;;;23.70;62.67
250;BME280;109;19.806;-70.704;2022-12-18T00:35:25;101505.00;;;23.70;63.30
250;BME280;109;19.806;-70.704;2022-12-18T00:37:52;101511.09;;;23.74;63.12
250;BME280;109;19.806;-70.704;2022-12-18T00:40:25;101513.22;;;23.66;63.17
250;BME280;109;19.806;-70.704;2022-12-18T00:42:53;101527.34;;;23.68;63.06
250;BME280;109;19.806;-70.704;2022-12-18T00:45:30;101529.09;;;23.69;63.19
250;BME280;109;19.806;-70.704;2022-12-18T00:47:57;101526.56;;;23.66;63.30
250;BME280;109;19.806;-70.704;2022-12-18T00:50:30;101528.41;;;23.64;63.46
250;BME280;109;19.806;-70.704;2022-12-18T00:52:59;101531.00;;;23.67;63.34
250;BME280;109;19.806;-70.704;2022-12-18T00:55:32;101539.75;;;23.70;63.29
250;BME280;109;19.806;-70.704;2022-12-18T00:58:20;101537.25;;;23.66;63.57
250;BME280;109;19.806;-70.704;2022-12-18T01:01:04;101544.41;;;23.65;63.56
250;BME280;109;19.806;-70.704;2022-12-18T01:03:37;101538.19;;;23.65;63.48
250;BME280;109;19.806;-70.704;2022-12-18T01:06:20;101538.34;;;23.60;63.79
250;BME280;109;19.806;-70.704;2022-12-18T01:08:47;101540.91;;;23.63;63.49
250;BME280;109;19.806;-70.704;2022-12-18T01:11:26;101544.69;;;23.56;63.57
250;BME280;109;19.806;-70.704;2022-12-18T01:13:54;101545.53;;;23.58;63.72
250;BME280;109;19.806;-70.704;2022-12-18T01:16:37;101557.22;;;23.54;63.78
250;BME280;109;19.806;-70.704;2022-12-18T01:19:04;101557.34;;;23.51;63.80
250;BME280;109;19.806;-70.704;2022-12-18T01:21:43;101551.13;;;23.51;63.95
250;BME280;109;19.806;-70.704;2022-12-18T01:24:11;101549.09;;;23.57;64.01
250;BME280;109;19.806;-70.704;2022-12-18T01:26:52;101562.69;;;23.51;63.96
250;BME280;109;19.806;-70.704;2022-12-18T01:29:19;101545.69;;;23.54;64.12
250;BME280;109;19.806;-70.704;2022-12-18T01:31:59;101559.06;;;23.54;63.96
250;BME280;109;19.806;-70.704;2022-12-18T01:34:33;101562.50;;;23.56;63.83
250;BME280;109;19.806;-70.704;2022-12-18T01:37:14;101564.41;;;23.54;64.15
250;BME280;109;19.806;-70.704;2022-12-18T01:39:54;101567.91;;;23.54;63.86
250;BME280;109;19.806;-70.704;2022-12-18T01:42:21;101567.16;;;23.51;63.98
250;BME280;109;19.806;-70.704;2022-12-18T01:50:31;101565.63;;;23.44;64.27
250;BME280;109;19.806;-70.704;2022-12-18T01:53:14;101564.66;;;23.46;64.30
250;BME280;109;19.806;-70.704;2022-12-18T01:56:01;101574.47;;;23.46;64.61
250;BME280;109;19.806;-70.704;2022-12-18T02:01:36;101579.91;;;23.43;64.47
250;BME280;109;19.806;-70.704;2022-12-18T02:04:25;101574.31;;;23.50;64.53
250;BME280;109;19.806;-70.704;2022-12-18T02:07:29;101578.06;;;23.45;64.65
250;BME280;109;19.806;-70.704;2022-12-18T02:10:24;101579.31;;;23.34;64.27
250;BME280;109;19.806;-70.704;2022-12-18T02:13:24;101581.25;;;23.29;64.50
250;BME280;109;19.806;-70.704;2022-12-18T02:16:17;101587.13;;;23.41;64.34
250;BME280;109;19.806;-70.704;2022-12-18T02:19:00;101580.00;;;23.41;64.22
250;BME280;109;19.806;-70.704;2022-12-18T02:24:41;101576.53;;;23.38;64.03
250;BME280;109;19.806;-70.704;2022-12-18T02:27:29;101571.84;;;23.44;64.30
250;BME280;109;19.806;-70.704;2022-12-18T02:30:12;101575.72;;;23.35;64.16
250;BME280;109;19.806;-70.704;2022-12-18T02:32:43;101578.44;;;23.34;64.25
250;BME280;109;19.806;-70.704;2022-12-18T02:35:26;101581.72;;;23.42;64.38
250;BME280;109;19.806;-70.704;2022-12-18T02:37:58;101589.03;;;23.37;64.33
250;BME280;109;19.806;-70.704;2022-12-18T02:40:40;101589.03;;;23.37;64.31
250;BME280;109;19.806;-70.704;2022-12-18T02:43:17;101589.09;;;23.35;64.21
250;BME280;109;19.806;-70.704;2022-12-18T02:46:00;101598.88;;;23.35;64.44
250;BME280;109;19.806;-70.704;2022-12-18T02:48:34;101597.81;;;23.41;64.38
250;BME280;109;19.806;-70.704;2022-12-18T02:51:29;101597.59;;;23.47;64.36
250;BME280;109;19.806;-70.704;2022-12-18T02:54:34;101607.34;;;23.48;64.08
250;BME280;109;19.806;-70.704;2022-12-18T03:03:51;101607.56;;;23.42;64.00
250;BME280;109;19.806;-70.704;2022-12-18T03:06:46;101598.50;;;23.46;63.95
250;BME280;109;19.806;-70.704;2022-12-18T03:09:28;101598.31;;;23.52;63.83
250;BME280;109;19.806;-70.704;2022-12-18T03:12:18;101599.25;;;23.51;63.82
250;BME280;109;19.806;-70.704;2022-12-18T03:18:15;101599.34;;;23.48;63.69
250;BME280;109;19.806;-70.704;2022-12-18T03:21:00;101595.88;;;23.44;63.61
250;BME280;109;19.806;-70.704;2022-12-18T03:23:40;101598.56;;;23.44;63.51
250;BME280;109;19.806;-70.704;2022-12-18T03:26:26;101597.59;;;23.47;63.28
250;BME280;109;19.806;-70.704;2022-12-18T03:29:08;101597.75;;;23.42;63.65
250;BME280;109;19.806;-70.704;2022-12-18T03:31:53;101588.69;;;23.46;63.67
250;BME280;109;19.806;-70.704;2022-12-18T03:34:32;101587.81;;;23.46;63.63
250;BME280;109;19.806;-70.704;2022-12-18T03:37:15;101585.06;;;23.49;63.56
250;BME280;109;19.806;-70.704;2022-12-18T03:39:55;101577.25;;;23.43;63.44
250;BME280;109;19.806;-70.704;2022-12-18T03:54:01;101553.53;;;23.33;63.33
250;BME280;109;19.806;-70.704;2022-12-18T03:57:10;101554.44;;;23.32;63.41
250;BME280;109;19.806;-70.704;2022-12-18T04:00:03;101544.00;;;23.26;63.36
250;BME280;109;19.806;-70.704;2022-12-18T04:02:53;101545.63;;;23.30;63.46
250;BME280;109;19.806;-70.704;2022-12-18T04:05:42;101537.84;;;23.24;63.46
250;BME280;109;19.806;-70.704;2022-12-18T04:08:20;101534.34;;;23.22;63.47
250;BME280;109;19.806;-70.704;2022-12-18T04:11:04;101532.50;;;23.24;62.83
250;BME280;109;19.806;-70.704;2022-12-18T04:13:38;101530.50;;;23.29;62.96
250;BME280;109;19.806;-70.704;2022-12-18T04:16:22;101527.63;;;23.35;62.70
250;BME280;109;19.806;-70.704;2022-12-18T04:18:52;101523.75;;;23.44;62.65
250;BME280;109;19.806;-70.704;2022-12-18T04:21:38;101528.50;;;23.36;62.54
250;BME280;109;19.806;-70.704;2022-12-18T04:24:13;101524.72;;;23.42;62.65
250;BME280;109;19.806;-70.704;2022-12-18T04:27:03;101521.38;;;23.37;62.35
250;BME280;109;19.806;-70.704;2022-12-18T04:29:45;101530.38;;;23.34;62.69
250;BME280;109;19.806;-70.704;2022-12-18T04:32:25;101532.88;;;23.39;62.55
250;BME280;109;19.806;-70.704;2022-12-18T04:35:14;101530.41;;;23.32;62.78
250;BME280;109;19.806;-70.704;2022-12-18T04:37:47;101527.53;;;23.39;62.63
250;BME280;109;19.806;-70.704;2022-12-18T04:40:27;101521.56;;;23.30;62.49
250;BME280;109;19.806;-70.704;2022-12-18T04:42:54;101516.03;;;23.37;62.52
250;BME280;109;19.806;-70.704;2022-12-18T04:45:33;101518.53;;;23.41;62.54
250;BME280;109;19.806;-70.704;2022-12-18T04:48:01;101511.47;;;23.40;62.59
250;BME280;109;19.806;-70.704;2022-12-18T04:50:42;101504.31;;;23.41;62.61
250;BME280;109;19.806;-70.704;2022-12-18T04:53:09;101502.38;;;23.44;62.64
250;BME280;109;19.806;-70.704;2022-12-18T04:56:09;101497.00;;;23.46;62.79
250;BME280;109;19.806;-70.704;2022-12-18T04:58:49;101502.72;;;23.35;62.92
250;BME280;109;19.806;-70.704;2022-12-18T05:01:29;101496.63;;;23.31;62.70
250;BME280;109;19.806;-70.704;2022-12-18T05:03:55;101504.56;;;23.33;62.90
250;BME280;109;19.806;-70.704;2022-12-18T05:06:36;101504.91;;;23.24;63.09
250;BME280;109;19.806;-70.704;2022-12-18T05:09:03;101496.84;;;23.25;63.19
250;BME280;109;19.806;-70.704;2022-12-18T05:11:42;101512.97;;;23.22;63.23
250;BME280;109;19.806;-70.704;2022-12-18T05:14:09;101498.53;;;23.28;63.33
250;BME280;109;19.806;-70.704;2022-12-18T05:16:56;101499.13;;;23.36;62.94
250;BME280;109;19.806;-70.704;2022-12-18T05:19:29;101507.97;;;23.38;62.95
250;BME280;109;19.806;-70.704;2022-12-18T05:22:10;101496.63;;;23.31;62.65
250;BME280;109;19.806;-70.704;2022-12-18T05:24:37;101503.16;;;23.23;62.83
250;BME280;109;19.806;-70.704;2022-12-18T05:27:17;101517.34;;;23.25;63.12
250;BME280;109;19.806;-70.704;2022-12-18T05:29:57;101511.91;;;23.28;63.23
250;BME280;109;19.806;-70.704;2022-12-18T05:32:23;101503.75;;;23.31;63.04
250;BME280;109;19.806;-70.704;2022-12-18T05:35:04;101494.03;;;23.28;62.91
250;BME280;109;19.806;-70.704;2022-12-18T05:37:39;101489.66;;;23.27;63.70
250;BME280;109;19.806;-70.704;2022-12-18T05:40:19;101486.16;;;23.25;63.42
250;BME280;109;19.806;-70.704;2022-12-18T05:42:45;101482.63;;;23.25;63.75
250;BME280;109;19.806;-70.704;2022-12-18T05:45:25;101472.91;;;23.22;63.58
250;BME280;109;19.806;-70.704;2022-12-18T05:47:53;101465.09;;;23.16;63.51
250;BME280;109;19.806;-70.704;2022-12-18T05:50:36;101467.72;;;23.18;63.84
250;BME280;109;19.806;-70.704;2022-12-18T05:53:09;101466.75;;;23.20;63.78
250;BME280;109;19.806;-70.704;2022-12-18T05:56:00;101458.91;;;23.16;63.90
250;BME280;109;19.806;-70.704;2022-12-18T05:58:41;101460.22;;;23.04;63.78
250;BME280;109;19.806;-70.704;2022-12-18T06:01:25;101458.34;;;23.06;64.12
250;BME280;109;19.806;-70.704;2022-12-18T06:03:58;101457.34;;;23.10;64.14
250;BME280;109;19.806;-70.704;2022-12-18T06:06:38;101453.06;;;23.05;64.12
250;BME280;109;19.806;-70.704;2022-12-18T06:09:05;101453.91;;;23.07;64.36
250;BME280;109;19.806;-70.704;2022-12-18T06:11:44;101443.63;;;22.94;64.55
250;BME280;109;19.806;-70.704;2022-12-18T06:14:11;101451.50;;;22.99;64.33
250;BME280;109;19.806;-70.704;2022-12-18T06:16:58;101449.72;;;22.99;64.55
250;BME280;109;19.806;-70.704;2022-12-18T06:19:31;101441.38;;;23.09;64.38
250;BME280;109;19.806;-70.704;2022-12-18T06:22:11;101435.97;;;23.10;64.10
250;BME280;109;19.806;-70.704;2022-12-18T06:24:38;101435.97;;;23.10;64.36
250;BME280;109;19.806;-70.704;2022-12-18T06:27:18;101427.84;;;23.13;64.46
250;BME280;109;19.806;-70.704;2022-12-18T06:29:58;101419.91;;;23.12;64.51
250;BME280;109;19.806;-70.704;2022-12-18T06:32:25;101419.72;;;23.16;64.37
250;BME280;109;19.806;-70.704;2022-12-18T06:35:05;101421.34;;;23.20;64.07
250;BME280;109;19.806;-70.704;2022-12-18T06:37:31;101416.88;;;23.21;64.19
250;BME280;109;19.806;-70.704;2022-12-18T06:40:11;101416.06;;;23.19;64.46
250;BME280;109;19.806;-70.704;2022-12-18T06:42:38;101418.06;;;23.14;64.23
250;BME280;109;19.806;-70.704;2022-12-18T06:45:18;101423.44;;;23.12;64.43
250;BME280;109;19.806;-70.704;2022-12-18T06:47:45;101419.72;;;23.16;64.40
250;BME280;109;19.806;-70.704;2022-12-18T06:50:24;101412.16;;;23.04;64.61
250;BME280;109;19.806;-70.704;2022-12-18T06:52:51;101412.16;;;23.04;64.89
250;BME280;109;19.806;-70.704;2022-12-18T06:55:37;101413.06;;;23.03;64.40
250;BME280;109;19.806;-70.704;2022-12-18T06:58:16;101406.72;;;23.07;64.84
250;BME280;109;19.806;-70.704;2022-12-18T07:01:01;101410.19;;;23.09;64.61
250;BME280;109;19.806;-70.704;2022-12-18T07:03:34;101417.44;;;23.06;64.47
250;BME280;109;19.806;-70.704;2022-12-18T07:06:17;101419.22;;;23.05;63.92
250;BME280;109;19.806;-70.704;2022-12-18T07:08:44;101418.31;;;23.06;63.89
250;BME280;109;19.806;-70.704;2022-12-18T07:11:35;101428.38;;;22.98;64.43
250;BME280;109;19.806;-70.704;2022-12-18T07:14:07;101430.09;;;23.01;64.40
250;BME280;109;19.806;-70.704;2022-12-18T07:16:48;101433.72;;;22.98;64.59
250;BME280;109;19.806;-70.704;2022-12-18T07:19:15;101437.28;;;22.98;64.34
250;BME280;109;19.806;-70.704;2022-12-18T07:21:57;101432.13;;;22.92;64.61
250;BME280;109;19.806;-70.704;2022-12-18T07:24:24;101428.56;;;22.92;64.21
250;BME280;109;19.806;-70.704;2022-12-18T07:27:04;101436.81;;;22.86;64.26
250;BME280;109;19.806;-70.704;2022-12-18T07:29:31;101445.94;;;22.79;64.40
250;BME280;109;19.806;-70.704;2022-12-18T07:32:11;101434.56;;;22.74;64.22
250;BME280;109;19.806;-70.704;2022-12-18T07:34:51;101439.47;;;22.86;64.07
250;BME280;109;19.806;-70.704;2022-12-18T07:37:18;101435.66;;;22.93;63.90
250;BME280;109;19.806;-70.704;2022-12-18T07:39:57;101442.19;;;22.84;63.27
250;BME280;109;19.806;-70.704;2022-12-18T07:42:24;101436.75;;;22.87;63.34
250;BME280;109;19.806;-70.704;2022-12-18T07:45:04;101438.28;;;22.94;63.35
250;BME280;109;19.806;-70.704;2022-12-18T07:47:34;101433.66;;;23.01;63.12
250;BME280;109;19.806;-70.704;2022-12-18T07:50:14;101438.19;;;22.97;62.94
250;BME280;109;19.806;-70.704;2022-12-18T07:52:41;101439.97;;;22.98;62.92
250;BME280;109;19.806;-70.704;2022-12-18T07:55:27;101440.72;;;23.02;62.46
250;BME280;109;19.806;-70.704;2022-12-18T07:58:07;101437.22;;;23.00;62.48
250;BME280;109;19.806;-70.704;2022-12-18T08:00:46;101437.22;;;23.00;62.49
250;BME280;109;19.806;-70.704;2022-12-18T08:03:16;101432.00;;;22.95;62.53
250;BME280;109;19.806;-70.704;2022-12-18T08:06:05;101426.50;;;23.02;62.16
250;BME280;109;19.806;-70.704;2022-12-18T08:08:38;101421.28;;;22.97;62.16
250;BME280;109;19.806;-70.704;2022-12-18T08:11:18;101414.19;;;22.96;62.25
250;BME280;109;19.806;-70.704;2022-12-18T08:13:45;101410.59;;;22.98;62.60
250;BME280;109;19.806;-70.704;2022-12-18T08:16:25;101412.28;;;23.01;62.56
250;BME280;109;19.806;-70.704;2022-12-18T08:18:52;101411.59;;;22.94;62.57
250;BME280;109;19.806;-70.704;2022-12-18T08:21:33;101420.50;;;22.93;62.54
250;BME280;109;19.806;-70.704;2022-12-18T08:24:01;101411.00;;;22.86;62.52
250;BME280;109;19.806;-70.704;2022-12-18T08:26:40;101415.22;;;22.92;62.71
250;BME280;109;19.806;-70.704;2022-12-18T08:29:08;101423.94;;;22.98;62.28
250;BME280;109;19.806;-70.704;2022-12-18T08:31:47;101415.03;;;22.98;62.14
250;BME280;109;19.806;-70.704;2022-12-18T08:34:14;101421.53;;;22.89;62.14
250;BME280;109;19.806;-70.704;2022-12-18T08:36:54;101418.09;;;22.87;62.25
250;BME280;109;19.806;-70.704;2022-12-18T08:39:21;101428.72;;;22.89;62.60
250;BME280;109;19.806;-70.704;2022-12-18T08:42:00;101435.72;;;22.91;62.58
250;BME280;109;19.806;-70.704;2022-12-18T08:44:52;101430.56;;;22.87;62.42
250;BME280;109;19.806;-70.704;2022-12-18T08:47:32;101434.25;;;22.83;62.47
250;BME280;109;19.806;-70.704;2022-12-18T08:50:12;101439.59;;;22.83;62.35
250;BME280;109;19.806;-70.704;2022-12-18T08:52:39;101436.09;;;22.81;62.10
250;BME280;109;19.806;-70.704;2022-12-18T08:55:26;101447.59;;;22.83;61.69
250;BME280;109;19.806;-70.704;2022-12-18T08:58:05;101451.19;;;22.82;61.58
250;BME280;109;19.806;-70.704;2022-12-18T09:00:53;101449.25;;;22.87;61.63
250;BME280;109;19.806;-70.704;2022-12-18T09:03:26;101445.75;;;22.85;61.31
250;BME280;109;19.806;-70.704;2022-12-18T09:06:07;101447.50;;;22.86;61.60
250;BME280;109;19.806;-70.704;2022-12-18T09:08:36;101440.34;;;22.86;61.35
250;BME280;109;19.806;-70.704;2022-12-18T09:11:23;101438.56;;;22.87;61.29
250;BME280;109;19.806;-70.704;2022-12-18T09:13:57;101441.31;;;22.84;61.59
250;BME280;109;19.806;-70.704;2022-12-18T09:16:37;101434.41;;;22.78;61.43
250;BME280;109;19.806;-70.704;2022-12-18T09:19:04;101433.03;;;22.67;61.67
250;BME280;109;19.806;-70.704;2022-12-18T09:21:44;101443.50;;;22.73;61.65
250;BME280;109;19.806;-70.704;2022-12-18T09:24:16;101444.47;;;22.70;61.61
250;BME280;109;19.806;-70.704;2022-12-18T09:26:56;101450.41;;;22.78;61.13
250;BME280;109;19.806;-70.704;2022-12-18T09:29:23;101447.75;;;22.78;61.40
250;BME280;109;19.806;-70.704;2022-12-18T09:32:02;101438.13;;;22.74;61.52
250;BME280;109;19.806;-70.704;2022-12-18T09:34:42;101441.31;;;22.84;61.33
250;BME280;109;19.806;-70.704;2022-12-18T09:37:16;101445.19;;;22.75;61.49
250;BME280;109;19.806;-70.704;2022-12-18T09:39:55;101445.25;;;22.74;61.60
250;BME280;109;19.806;-70.704;2022-12-18T09:42:22;101453.22;;;22.75;61.67
250;BME280;109;19.806;-70.704;2022-12-18T09:45:03;101458.63;;;22.72;61.59
250;BME280;109;19.806;-70.704;2022-12-18T09:47:36;101455.19;;;22.69;61.53
250;BME280;109;19.806;-70.704;2022-12-18T09:50:33;101463.75;;;22.78;61.43
250;BME280;109;19.806;-70.704;2022-12-18T09:53:18;101466.47;;;22.77;61.41
250;BME280;109;19.806;-70.704;2022-12-18T09:56:05;101469.88;;;22.82;61.63
250;BME280;109;19.806;-70.704;2022-12-18T09:58:52;101473.25;;;22.87;61.16
250;BME280;109;19.806;-70.704;2022-12-18T10:01:34;101473.25;;;22.87;61.25
250;BME280;109;19.806;-70.704;2022-12-18T10:04:01;101474.09;;;22.89;61.14
250;BME280;109;19.806;-70.704;2022-12-18T10:06:54;101482.09;;;22.89;61.27
250;BME280;109;19.806;-70.704;2022-12-18T10:17:59;101494.00;;;23.05;61.29
250;BME280;109;19.806;-70.704;2022-12-18T10:21:11;101499.22;;;23.08;61.52
250;BME280;109;19.806;-70.704;2022-12-18T10:26:58;101495.63;;;23.09;61.12
250;BME280;109;19.806;-70.704;2022-12-18T10:30:20;101492.09;;;23.09;60.90
250;BME280;109;19.806;-70.704;2022-12-18T10:33:02;101501.03;;;23.08;60.90
250;BME280;109;19.806;-70.704;2022-12-18T10:35:29;101499.13;;;23.11;60.97
250;BME280;109;19.806;-70.704;2022-12-18T10:43:29;101496.63;;;23.07;60.55
250;BME280;109;19.806;-70.704;2022-12-18T10:51:32;101520.66;;;23.07;60.54
250;BME280;109;19.806;-70.704;2022-12-18T10:54:22;101516.91;;;23.12;60.60
250;BME280;109;19.806;-70.704;2022-12-18T10:56:50;101532.91;;;23.12;60.98
250;BME280;109;19.806;-70.704;2022-12-18T10:59:17;101527.78;;;23.06;61.05
250;BME280;109;19.806;-70.704;2022-12-18T11:04:28;101538.41;;;23.08;61.08
250;BME280;109;19.806;-70.704;2022-12-18T11:07:15;101538.75;;;22.98;61.48
250;BME280;109;19.806;-70.704;2022-12-18T11:09:43;101546.25;;;22.86;61.99
250;BME280;109;19.806;-70.704;2022-12-18T11:12:18;101547.13;;;22.86;61.62
250;BME280;109;19.806;-70.704;2022-12-18T11:14:47;101547.22;;;22.83;61.74
250;BME280;109;19.806;-70.704;2022-12-18T11:17:31;101556.19;;;22.81;62.37
250;BME280;109;19.806;-70.704;2022-12-18T11:22:57;101565.22;;;22.77;62.54
250;BME280;109;19.806;-70.704;2022-12-18T11:25:24;101566.34;;;22.70;62.98
250;BME280;109;19.806;-70.704;2022-12-18T11:30:35;101585.06;;;22.68;62.47
250;BME280;109;19.806;-70.704;2022-12-18T11:33:18;101583.41;;;22.64;62.77
250;BME280;109;19.806;-70.704;2022-12-18T11:35:55;101584.47;;;22.60;62.97
250;BME280;109;19.806;-70.704;2022-12-18T11:38:37;101599.84;;;22.50;62.78
250;BME280;109;19.806;-70.704;2022-12-18T11:43:52;101606.19;;;22.48;63.03
250;BME280;109;19.806;-70.704;2022-12-18T11:46:37;101610.59;;;22.49;63.31
250;BME280;109;19.806;-70.704;2022-12-18T11:51:42;101619.66;;;22.43;63.10
250;BME280;109;19.806;-70.704;2022-12-18T11:54:14;101623.03;;;22.50;63.28
250;BME280;109;19.806;-70.704;2022-12-18T11:56:56;101626.44;;;22.53;62.72
250;BME280;109;19.806;-70.704;2022-12-18T11:59:39;101618.31;;;22.58;63.01
250;BME280;109;19.806;-70.704;2022-12-18T12:02:17;101615.41;;;22.65;63.31
250;BME280;109;19.806;-70.704;2022-12-18T12:05:38;101616.97;;;22.73;63.35
250;BME280;109;19.806;-70.704;2022-12-18T12:08:22;101624.66;;;22.82;63.01
250;BME280;109;19.806;-70.704;2022-12-18T12:11:33;101624.38;;;22.91;62.71
250;BME280;109;19.806;-70.704;2022-12-18T12:14:21;101624.19;;;22.97;62.28
250;BME280;109;19.806;-70.704;2022-12-18T12:19:38;101627.63;;;23.02;62.70
250;BME280;109;19.806;-70.704;2022-12-18T12:30:18;101636.47;;;22.75;62.67
250;BME280;109;19.806;-70.704;2022-12-18T12:33:17;101633.69;;;22.78;62.48
250;BME280;109;19.806;-70.704;2022-12-18T12:38:35;101639.19;;;22.73;62.40
250;BME280;109;19.806;-70.704;2022-12-18T12:41:09;101631.13;;;22.75;62.01
250;BME280;109;19.806;-70.704;2022-12-18T12:43:58;101635.56;;;23.04;61.88
250;BME280;109;19.806;-70.704;2022-12-18T12:46:27;101642.66;;;23.31;61.67
250;BME280;109;19.806;-70.704;2022-12-18T12:49:00;101639.97;;;23.31;61.69
250;BME280;109;19.806;-70.704;2022-12-18T12:51:40;101639.69;;;23.40;61.16
250;BME280;109;19.806;-70.704;2022-12-18T12:54:16;101647.63;;;23.68;60.80
250;BME280;109;19.806;-70.704;2022-12-18T12:56:54;101648.00;;;23.82;59.74
250;BME280;109;19.806;-70.704;2022-12-18T12:59:47;101651.06;;;23.96;59.43
250;BME280;109;19.806;-70.704;2022-12-18T13:05:08;101656.97;;;24.06;59.26
250;BME280;109;19.806;-70.704;2022-12-18T13:07:50;101651.53;;;24.32;59.70
250;BME280;109;19.806;-70.704;2022-12-18T13:12:59;101648.91;;;24.78;58.90
250;BME280;109;19.806;-70.704;2022-12-18T13:20:39;101660.22;;;24.84;57.80
250;BME280;109;19.806;-70.704;2022-12-18T13:23:28;101659.97;;;24.68;59.32
250;BME280;109;19.806;-70.704;2022-12-18T13:25:58;101649.34;;;24.89;59.17
250;BME280;109;19.806;-70.704;2022-12-18T13:34:18;101656.44;;;25.11;57.17
250;BME280;109;19.806;-70.704;2022-12-18T13:36:47;101653.94;;;25.29;57.00
250;BME280;109;19.806;-70.704;2022-12-18T13:45:01;101654.78;;;25.31;58.63
250;BME280;109;19.806;-70.704;2022-12-18T13:47:33;101666.44;;;25.30;58.68
250;BME280;109;19.806;-70.704;2022-12-18T13:50:09;101657.81;;;25.22;59.10
250;BME280;109;19.806;-70.704;2022-12-18T13:52:39;101665.16;;;25.17;58.15
250;BME280;109;19.806;-70.704;2022-12-18T13:55:16;101665.28;;;25.14;58.35
250;BME280;109;19.806;-70.704;2022-12-18T13:57:44;101674.50;;;25.28;58.13
250;BME280;109;19.806;-70.704;2022-12-18T14:00:24;101667.13;;;25.35;58.16
250;BME280;109;19.806;-70.704;2022-12-18T14:02:51;101678.97;;;25.29;58.05
250;BME280;109;19.806;-70.704;2022-12-18T14:05:32;101671.81;;;25.28;58.19
250;BME280;109;19.806;-70.704;2022-12-18T14:08:15;101666.19;;;25.36;58.88
250;BME280;109;19.806;-70.704;2022-12-18T14:10:45;101660.31;;;25.68;59.31
250;BME280;109;19.806;-70.704;2022-12-18T14:13:35;101659.19;;;25.74;58.75
250;BME280;109;19.806;-70.704;2022-12-18T14:16:04;101656.09;;;25.83;58.09
250;BME280;109;19.806;-70.704;2022-12-18T14:18:53;101658.50;;;26.09;58.08
250;BME280;109;19.806;-70.704;2022-12-18T14:21:26;101640.47;;;25.93;58.27
250;BME280;109;19.806;-70.704;2022-12-18T14:24:13;101633.97;;;25.98;58.58
250;BME280;109;19.806;-70.704;2022-12-18T14:26:43;101640.00;;;26.03;57.71
250;BME280;109;19.806;-70.704;2022-12-18T14:29:36;101632.69;;;26.07;57.36
250;BME280;109;19.806;-70.704;2022-12-18T14:32:15;101631.44;;;26.14;57.54
250;BME280;109;19.806;-70.704;2022-12-18T14:34:44;101634.19;;;25.94;57.70
250;BME280;109;19.806;-70.704;2022-12-18T14:37:13;101629.50;;;25.99;58.06
250;BME280;109;19.806;-70.704;2022-12-18T14:39:51;101618.41;;;26.06;58.03
250;BME280;109;19.806;-70.704;2022-12-18T14:42:18;101602.72;;;25.97;57.22
250;BME280;109;19.806;-70.704;2022-12-18T14:44:44;101599.13;;;26.17;56.93
250;BME280;109;19.806;-70.704;2022-12-18T14:47:15;101596.09;;;26.43;57.24
250;BME280;109;19.806;-70.704;2022-12-18T14:49:42;101598.78;;;26.25;56.13
250;BME280;109;19.806;-70.704;2022-12-18T14:52:26;101593.69;;;26.56;57.12
250;BME280;109;19.806;-70.704;2022-12-18T14:54:53;101593.56;;;26.59;56.89
250;BME280;109;19.806;-70.704;2022-12-18T14:57:35;101586.84;;;26.50;58.17
250;BME280;109;19.806;-70.704;2022-12-18T15:00:06;101584.50;;;26.43;57.03
250;BME280;109;19.806;-70.704;2022-12-18T15:02:35;101584.28;;;26.47;56.84
250;BME280;109;19.806;-70.704;2022-12-18T15:07:49;101580.06;;;26.61;56.69
250;BME280;109;19.806;-70.704;2022-12-18T15:10:23;101576.03;;;26.69;56.63
250;BME280;109;19.806;-70.704;2022-12-18T15:20:39;101561.28;;;26.42;58.56
250;BME280;109;19.806;-70.704;2022-12-18T15:23:27;101562.22;;;26.41;59.34
250;BME280;109;19.806;-70.704;2022-12-18T15:25:56;101556.13;;;26.37;58.61
250;BME280;109;19.806;-70.704;2022-12-18T15:31:01;101550.69;;;26.20;59.63
250;BME280;109;19.806;-70.704;2022-12-18T15:33:34;101545.44;;;26.17;60.10
250;BME280;109;19.806;-70.704;2022-12-18T15:36:05;101544.78;;;26.31;60.35
250;BME280;109;19.806;-70.704;2022-12-18T15:38:34;101532.63;;;26.24;60.08
250;BME280;109;19.806;-70.704;2022-12-18T15:41:00;101534.94;;;26.31;60.04
250;BME280;109;19.806;-70.704;2022-12-18T15:43:28;101526.94;;;26.30;60.30
250;BME280;109;19.806;-70.704;2022-12-18T15:46:02;101534.31;;;26.26;60.24
250;BME280;109;19.806;-70.704;2022-12-18T15:48:29;101533.19;;;26.30;60.52
250;BME280;109;19.806;-70.704;2022-12-18T15:50:56;101528.69;;;26.31;59.93
250;BME280;109;19.806;-70.704;2022-12-18T15:53:29;101513.03;;;26.40;60.49
250;BME280;109;19.806;-70.704;2022-12-18T15:55:57;101512.88;;;26.43;60.79
250;BME280;109;19.806;-70.704;2022-12-18T15:58:42;101505.09;;;26.39;61.13
250;BME280;109;19.806;-70.704;2022-12-18T16:01:09;101506.94;;;26.37;60.39